Memphis, TN (37501)

1:04 AM CDT on March 25, 2017 (GMT -0500)
Rhodes College | | Change Station
Active Advisory: Wind Advisory

Elev 282 ft 35.15 °N, 89.99 °W | Updated 1 minute ago

Mostly Cloudy
Mostly Cloudy
70.1 °F
Feels Like 73 °F
N
4.0
Wind Variable Wind from SE
Gusts 19.0 mph

Today
High -- | Low -- °F
--% Chance of Precip.
Yesterday
High -- | Low -- °F
Precip. -- in
Pressure 29.97 in
Visibility 10.0 miles
Clouds Few 3200 ft
Mostly Cloudy 18000 ft
Heat Index 73 °F
Dew Point 61 °F
Humidity 72%
Rainfall 0.00 in
Snow Depth Not available.
6:56 AM 7:16 PM
Waning Crescent, 10% visible
METAR KMEM 250554Z 17014G24KT 10SM FEW032 BKN180 21/16 A2997 RMK AO2 PK WND 16027/0510 SLP147 T02110156 10228 20211 402670183 55004
Pressure 29.97 in
Visibility 10.0 miles
Clouds Few 3200 ft
Mostly Cloudy 18000 ft
Heat Index 73 °F
Dew Point 61 °F
Humidity 72%
Rainfall 0.00 in
Snow Depth Not available.
6:56 AM 7:16 PM
Waning Crescent, 10% visible
METAR KMEM 250554Z 17014G24KT 10SM FEW032 BKN180 21/16 A2997 RMK AO2 PK WND 16027/0510 SLP147 T02110156 10228 20211 402670183 55004

Get Your Daily Forecast Email!

Thanks for signing up!

Be on the lookout for a verification email in your inbox.

You'll start receiving severe weather alerts in your inbox..

×

10-Day Weather Forecast

Almanac

Astronomy

Mar. 25, 2017 Rise Set
Actual Time
Civil Twilight
Nautical Twilight
Astronomical Twilight
Moon
Length of Visible Light
Length of Day
Tomorrow will be .
, % of the Moon is Illuminated

Today's Extremes

State Highs State Lows

Community

WunderPhotos

Upload Photos

1,962,540 photos uploaded!

WunderBlog® & News

Nearby

Air Quality

  Air Quality AQ Index Pollutant
Not available.

Snow Depth

Station Depth Elevation

Earthquake Activity

City Distance Mag. Time & Date
Minimum magnitude displayed is 2.5.

Earthquake Activity

City Distance Mag. Time & Date
Minimum magnitude displayed is 2.5.

Coastal Water Temperatures

Place Temperature

Stations

Nearby Weather Stations

Station Location Temp. Windchill Dew Point Humidity Wind Precip. Elev Updated Type
                   

Watches & Warnings

Wind Advisory
Issued: 11:48 PM CDT Mar. 24, 2017 – National Weather Service

... Wind Advisory remains in ef wind.

Precautionary/preparedness actions...

A Wind Advisory means that sustained winds of 25 to 39 mph are
expected... or gusts will range between 40 and 57 mph. Winds this
strong can make driving difficult... especially for high profile
vehicles. Use extra caution.